Time;durP1;ratioP1;P1;durP2;ratioP2;P2;SDS_P1;SDS_P2;PMS_P1;PMS_P2;Temp;Humidity;BMP_temperature;BMP_pressure;BME280_temperature;BME280_humidity;BME280_pressure;Samples;Min_cycle;Max_cycle;Signal;HPM_P1;HPM_P2
2022/03/19 00:02:06;;;;;;;49.30;18.38;;;;;;;-3.28;100.00;100996.88;5151035;27;20447;-64
2022/03/19 00:04:32;;;;;;;41.30;16.13;;;;;;;-3.31;100.00;100998.16;5151261;27;20100;-65
2022/03/19 00:06:59;;;;;;;47.45;16.30;;;;;;;-3.28;100.00;100997.69;5151001;27;20058;-64
2022/03/19 00:09:25;;;;;;;62.22;17.45;;;;;;;-3.32;100.00;101004.56;5153906;27;20046;-65
2022/03/19 00:11:54;;;;;;;46.60;16.80;;;;;;;-3.35;100.00;101007.69;5154501;27;20047;-65
2022/03/19 00:14:20;;;;;;;50.65;17.63;;;;;;;-3.37;100.00;101015.97;5154692;27;20083;-64
2022/03/19 00:16:47;;;;;;;47.42;16.60;;;;;;;-3.43;100.00;101006.16;5154861;27;20084;-65
2022/03/19 00:19:13;;;;;;;40.13;16.40;;;;;;;-3.38;100.00;101018.88;5154582;27;20057;-65
2022/03/19 00:21:40;;;;;;;49.30;18.15;;;;;;;-3.47;100.00;101018.38;5154570;27;20053;-65
2022/03/19 00:24:07;;;;;;;46.30;17.33;;;;;;;-3.48;100.00;101026.66;5154539;27;20054;-65
2022/03/19 00:26:33;;;;;;;45.08;17.42;;;;;;;-3.47;100.00;101022.91;5154579;27;20043;-65
2022/03/19 00:29:00;;;;;;;37.83;16.33;;;;;;;-3.52;100.00;101031.66;5154471;27;20046;-65
2022/03/19 00:31:26;;;;;;;44.78;17.77;;;;;;;-3.53;100.00;101027.34;5154652;27;20043;-64
2022/03/19 00:33:53;;;;;;;41.10;16.90;;;;;;;-3.57;100.00;101026.13;5154303;27;20051;-65
2022/03/19 00:36:19;;;;;;;43.60;19.02;;;;;;;-3.58;100.00;101027.19;5154671;27;20047;-65
2022/03/19 00:38:45;;;;;;;42.22;16.65;;;;;;;-3.61;100.00;101023.09;5154067;27;20053;-65
2022/03/19 00:41:13;;;;;;;42.72;16.05;;;;;;;-3.62;100.00;101034.03;5154189;27;20057;-65
2022/03/19 00:43:39;;;;;;;46.00;18.35;;;;;;;-3.52;100.00;101041.56;5154170;27;20054;-65
2022/03/19 00:46:06;;;;;;;40.60;16.75;;;;;;;-3.59;100.00;101047.00;5154133;27;20046;-65
2022/03/19 00:48:32;;;;;;;41.58;14.95;;;;;;;-3.62;100.00;101039.41;5153691;27;20053;-65
2022/03/19 00:50:59;;;;;;;39.92;15.55;;;;;;;-3.63;100.00;101025.19;5154111;27;20057;-65
2022/03/19 00:53:25;;;;;;;42.95;15.75;;;;;;;-3.64;100.00;101012.00;5154197;27;20095;-65
2022/03/19 00:55:51;;;;;;;37.85;15.73;;;;;;;-3.60;100.00;101014.03;5153853;27;20059;-65
2022/03/19 00:58:18;;;;;;;43.47;15.80;;;;;;;-3.60;100.00;101010.50;5154034;27;20046;-64
2022/03/19 01:00:44;;;;;;;39.20;15.35;;;;;;;-3.56;100.00;101009.03;5153991;27;20051;-65
2022/03/19 01:03:10;;;;;;;35.08;15.85;;;;;;;-3.55;100.00;101006.09;5153790;27;20054;-65
2022/03/19 01:05:36;;;;;;;45.85;16.50;;;;;;;-3.54;100.00;101004.22;5153692;27;20047;-65
2022/03/19 01:08:04;;;;;;;45.20;15.73;;;;;;;-3.48;100.00;101008.69;5154035;27;20056;-65
2022/03/19 01:10:31;;;;;;;29.48;14.88;;;;;;;-3.53;100.00;100997.84;5153507;27;20505;-65
2022/03/19 01:12:58;;;;;;;41.80;15.75;;;;;;;-3.52;100.00;100994.13;5153291;27;20046;-65
2022/03/19 01:15:25;;;;;;;47.05;15.82;;;;;;;-3.56;100.00;101003.66;5153595;27;20501;-65
2022/03/19 01:17:52;;;;;;;37.78;15.27;;;;;;;-3.61;100.00;100996.28;5153592;27;20057;-65
2022/03/19 01:20:18;;;;;;;46.05;14.55;;;;;;;-3.58;100.00;100990.47;5152938;27;20083;-65
2022/03/19 01:22:46;;;;;;;37.20;14.65;;;;;;;-3.64;100.00;100986.00;5153401;27;20046;-65
2022/03/19 01:25:14;;;;;;;35.00;15.40;;;;;;;-3.61;100.00;100984.75;5153651;27;20490;-65
2022/03/19 01:27:42;;;;;;;32.85;13.93;;;;;;;-3.62;100.00;100975.88;5153244;27;20047;-65
2022/03/19 01:30:11;;;;;;;27.58;13.13;;;;;;;-3.62;100.00;100969.72;5153337;27;20438;-65
2022/03/19 01:32:38;;;;;;;31.75;13.27;;;;;;;-3.63;100.00;100952.81;5152910;27;20485;-65
2022/03/19 01:35:05;;;;;;;31.05;12.93;;;;;;;-3.62;100.00;100945.59;5153582;27;20051;-65
2022/03/19 01:37:31;;;;;;;29.58;12.80;;;;;;;-3.66;100.00;100939.06;5152956;27;20506;-65
2022/03/19 01:39:57;;;;;;;32.45;12.38;;;;;;;-3.62;100.00;100940.22;5153214;27;20434;-65
2022/03/19 01:42:24;;;;;;;28.98;12.73;;;;;;;-3.68;100.00;100933.09;5153160;27;20422;-65
2022/03/19 01:44:51;;;;;;;29.52;13.25;;;;;;;-3.66;100.00;100933.69;5153074;27;20104;-65
2022/03/19 01:47:18;;;;;;;39.72;12.75;;;;;;;-3.70;100.00;100924.44;5153187;27;20042;-65
2022/03/19 01:49:44;;;;;;;29.40;12.68;;;;;;;-3.70;100.00;100935.16;5152501;27;20051;-65
2022/03/19 01:52:10;;;;;;;36.33;13.27;;;;;;;-3.73;100.00;100936.47;5153154;27;20049;-65
2022/03/19 01:54:38;;;;;;;35.35;13.48;;;;;;;-3.79;100.00;100935.50;5152775;27;20058;-65
2022/03/19 01:57:06;;;;;;;32.65;13.40;;;;;;;-3.79;100.00;100937.34;5153210;27;20079;-65
2022/03/19 01:59:36;;;;;;;28.20;13.73;;;;;;;-3.87;100.00;100940.34;5152655;27;20050;-65
2022/03/19 02:02:03;;;;;;;35.58;13.38;;;;;;;-3.87;100.00;100941.16;5153047;27;20092;-65
2022/03/19 02:04:31;;;;;;;34.80;13.73;;;;;;;-3.84;100.00;100947.94;5152703;27;20055;-65
2022/03/19 02:06:57;;;;;;;33.80;13.68;;;;;;;-3.88;100.00;100947.56;5153303;27;20516;-64
2022/03/19 02:09:24;;;;;;;32.63;12.85;;;;;;;-3.89;100.00;100940.56;5153004;27;20533;-64
2022/03/19 02:11:50;;;;;;;38.88;13.77;;;;;;;-3.90;100.00;100940.78;5152899;27;20046;-65
2022/03/19 02:14:16;;;;;;;31.60;13.55;;;;;;;-3.95;100.00;100944.16;5153045;27;20417;-65
2022/03/19 02:16:44;;;;;;;28.35;12.20;;;;;;;-3.98;100.00;100944.59;5152980;27;20051;-65
2022/03/19 02:19:10;;;;;;;29.90;13.30;;;;;;;-3.97;100.00;100940.88;5152881;27;20054;-65
2022/03/19 02:21:41;;;;;;;32.90;13.52;;;;;;;-3.90;100.00;100951.50;5152675;27;20047;-65
2022/03/19 02:26:53;;;;;;;37.45;13.35;;;;;;;-3.98;100.00;100958.00;5152476;27;20054;-65
2022/03/19 02:29:20;;;;;;;35.38;14.45;;;;;;;-3.95;100.00;100970.94;5152454;27;20414;-65
2022/03/19 02:31:48;;;;;;;30.15;13.52;;;;;;;-4.02;100.00;100973.69;5151142;27;20055;-65
2022/03/19 02:34:14;;;;;;;43.78;13.65;;;;;;;-4.01;100.00;100987.91;5152325;27;20095;-65
2022/03/19 02:36:41;;;;;;;37.40;13.57;;;;;;;-3.94;100.00;100991.31;5152252;27;20050;-65
2022/03/19 02:39:12;;;;;;;28.73;13.25;;;;;;;-3.99;100.00;100991.19;5152438;27;20043;-65
2022/03/19 02:41:42;;;;;;;30.52;13.15;;;;;;;-3.95;100.00;100992.38;5152401;27;20100;-65
2022/03/19 02:44:09;;;;;;;31.55;13.55;;;;;;;-3.97;100.00;100991.78;5152326;27;20058;-64
2022/03/19 02:46:37;;;;;;;32.28;14.00;;;;;;;-4.06;100.00;100990.47;5152413;27;20141;-65
2022/03/19 02:49:04;;;;;;;42.90;13.98;;;;;;;-4.06;100.00;100985.09;5151683;27;20062;-65
2022/03/19 02:51:33;;;;;;;35.30;13.63;;;;;;;-4.08;100.00;100996.03;5152331;27;20050;-64
2022/03/19 02:53:59;;;;;;;35.38;13.32;;;;;;;-4.05;100.00;100994.75;5152050;27;20054;-65
2022/03/19 02:56:26;;;;;;;33.80;13.25;;;;;;;-4.02;100.00;100992.47;5152327;27;20077;-64
2022/03/19 02:58:52;;;;;;;29.73;13.60;;;;;;;-4.07;100.00;100991.47;5151871;27;20062;-65
2022/03/19 03:01:18;;;;;;;32.33;12.07;;;;;;;-4.07;100.00;101005.69;5151997;27;20091;-64
2022/03/19 03:03:45;;;;;;;25.02;12.15;;;;;;;-4.13;100.00;101001.25;5152153;27;20050;-65
2022/03/19 03:06:11;;;;;;;31.90;12.85;;;;;;;-4.13;100.00;101003.06;5151883;27;20059;-65
2022/03/19 03:08:38;;;;;;;30.65;12.85;;;;;;;-4.14;100.00;101007.63;5152294;27;20558;-64
2022/03/19 03:11:04;;;;;;;39.28;15.85;;;;;;;-4.15;100.00;100997.16;5151722;27;20057;-65
2022/03/19 03:13:31;;;;;;;36.10;13.40;;;;;;;-4.13;100.00;101005.75;5151935;27;20050;-65
2022/03/19 03:15:58;;;;;;;33.45;13.25;;;;;;;-4.20;100.00;101005.00;5151773;27;20046;-65
2022/03/19 03:18:24;;;;;;;31.73;12.38;;;;;;;-4.20;100.00;100999.66;5151902;27;20448;-65
2022/03/19 03:20:50;;;;;;;32.20;12.48;;;;;;;-4.19;100.00;100999.44;5151628;27;20095;-64
2022/03/19 03:23:17;;;;;;;29.00;11.52;;;;;;;-4.19;100.00;100996.78;5151607;27;20493;-65
2022/03/19 03:25:43;;;;;;;26.75;13.05;;;;;;;-4.15;100.00;100992.59;5151537;27;20043;-64
2022/03/19 03:28:09;;;;;;;29.10;12.27;;;;;;;-4.17;100.00;100985.81;5151634;27;20570;-65
2022/03/19 03:30:36;;;;;;;38.13;13.13;;;;;;;-4.14;100.00;100980.84;5151416;27;20091;-64
2022/03/19 03:33:02;;;;;;;29.85;12.50;;;;;;;-4.15;100.00;100970.38;5151871;27;20054;-64
2022/03/19 03:35:29;;;;;;;30.63;12.20;;;;;;;-4.19;100.00;100971.84;5151828;27;20493;-65
2022/03/19 03:37:55;;;;;;;30.73;12.80;;;;;;;-4.20;100.00;100991.63;5151416;27;20050;-65
2022/03/19 03:40:21;;;;;;;28.65;11.55;;;;;;;-4.24;100.00;100987.75;5151905;27;20437;-64
2022/03/19 03:42:47;;;;;;;30.60;11.85;;;;;;;-4.23;100.00;100987.56;5151183;27;20472;-65
2022/03/19 03:45:14;;;;;;;26.35;12.73;;;;;;;-4.20;100.00;100976.38;5151663;27;20069;-65
2022/03/19 03:47:41;;;;;;;25.13;12.05;;;;;;;-4.23;100.00;100978.69;5151511;27;20051;-65
2022/03/19 03:50:08;;;;;;;25.98;11.25;;;;;;;-4.26;100.00;100978.09;5151120;27;20464;-65
2022/03/19 03:52:35;;;;;;;22.90;10.32;;;;;;;-4.30;100.00;100986.78;5151122;27;20055;-65
2022/03/19 03:55:03;;;;;;;31.73;12.45;;;;;;;-4.31;100.00;100985.16;5151251;27;20497;-65
2022/03/19 03:57:29;;;;;;;27.33;11.32;;;;;;;-4.32;100.00;100980.84;5151026;27;20089;-64
2022/03/19 03:59:56;;;;;;;26.77;11.95;;;;;;;-4.35;100.00;100976.75;5151328;27;20456;-65
2022/03/19 04:02:22;;;;;;;32.75;12.30;;;;;;;-4.34;100.00;100986.41;5151335;27;20059;-64
2022/03/19 04:04:49;;;;;;;30.35;12.27;;;;;;;-4.38;100.00;100987.09;5151143;27;20167;-65
2022/03/19 04:07:15;;;;;;;30.17;12.23;;;;;;;-4.37;100.00;100989.53;5151142;27;20047;-65
2022/03/19 04:09:41;;;;;;;31.75;12.63;;;;;;;-4.38;100.00;101001.28;5151088;27;20141;-64
2022/03/19 04:12:09;;;;;;;29.83;12.32;;;;;;;-4.36;100.00;101001.91;5151463;27;20042;-65
2022/03/19 04:14:35;;;;;;;28.08;12.55;;;;;;;-4.34;100.00;101002.47;5150978;27;20169;-65
2022/03/19 04:17:04;;;;;;;26.38;11.70;;;;;;;-4.36;100.00;101012.59;5151395;27;20559;-65
2022/03/19 04:19:30;;;;;;;36.00;12.52;;;;;;;-4.30;100.00;101025.13;5150875;27;20055;-65
2022/03/19 04:21:57;;;;;;;25.65;11.55;;;;;;;-4.32;100.00;101019.16;5151427;27;20438;-65
2022/03/19 04:24:23;;;;;;;37.22;13.25;;;;;;;-4.28;100.00;101030.22;5150857;27;20043;-64
2022/03/19 04:26:49;;;;;;;25.60;12.35;;;;;;;-4.22;100.00;101034.72;5151171;27;20468;-64
2022/03/19 04:29:16;;;;;;;26.33;12.90;;;;;;;-4.27;100.00;101035.34;5151142;27;20053;-65
2022/03/19 04:31:42;;;;;;;32.55;12.68;;;;;;;-4.21;100.00;101049.72;5150598;27;20528;-65
2022/03/19 04:34:08;;;;;;;27.10;12.80;;;;;;;-4.16;100.00;101057.13;5150790;27;20054;-64
2022/03/19 04:36:36;;;;;;;38.72;13.68;;;;;;;-4.19;100.00;101057.56;5150353;27;20047;-65
2022/03/19 04:39:05;;;;;;;31.95;13.25;;;;;;;-4.10;100.00;101066.94;5150919;27;20076;-64
2022/03/19 04:41:32;;;;;;;33.92;14.73;;;;;;;-4.07;100.00;101077.19;5150806;27;20055;-65
2022/03/19 04:43:58;;;;;;;32.85;14.43;;;;;;;-4.06;100.00;101078.84;5150941;27;20054;-65
2022/03/19 04:46:25;;;;;;;29.23;14.32;;;;;;;-4.01;100.00;101089.72;5150358;27;20042;-64
2022/03/19 04:48:52;;;;;;;44.33;14.00;;;;;;;-4.00;100.00;101091.34;5150263;27;20099;-66
2022/03/19 04:51:21;;;;;;;32.03;14.30;;;;;;;-3.83;100.00;101108.50;5150343;27;20063;-64
2022/03/19 04:53:50;;;;;;;29.00;13.68;;;;;;;-3.26;100.00;101121.69;5150363;27;20532;-64
2022/03/19 04:56:18;;;;;;;36.17;13.50;;;;;;;-3.24;100.00;101075.84;5152870;27;20050;-64
2022/03/19 04:58:44;;;;;;;32.53;15.23;;;;;;;-2.97;100.00;101057.50;5153801;27;20047;-64
2022/03/19 05:01:11;;;;;;;33.03;13.70;;;;;;;-2.01;100.00;101050.97;5154144;27;20099;-64
2022/03/19 05:03:37;;;;;;;34.75;14.82;;;;;;;-0.81;100.00;100999.97;5153456;27;20520;-64
2022/03/19 05:06:03;;;;;;;33.95;12.98;;;;;;;0.12;100.00;100970.59;5154099;27;20501;-64
2022/03/19 05:08:30;;;;;;;36.97;14.00;;;;;;;0.63;100.00;100993.59;5153885;27;20058;-64
2022/03/19 05:11:13;;;;;;;28.77;13.55;;;;;;;1.32;100.00;101037.97;5154148;27;20051;-64
2022/03/19 05:13:40;;;;;;;30.13;14.37;;;;;;;1.93;100.00;101124.97;5153706;27;20051;-64
2022/03/19 05:16:07;;;;;;;50.70;16.17;;;;;;;2.40;100.00;101177.50;5153569;27;20050;-64
2022/03/19 05:18:33;;;;;;;47.30;14.82;;;;;;;2.80;100.00;101229.22;5153600;27;20069;-64
2022/03/19 05:20:59;;;;;;;40.97;15.48;;;;;;;3.33;100.00;101269.03;5153774;27;20085;-64
2022/03/19 05:23:25;;;;;;;49.75;15.80;;;;;;;3.70;100.00;101304.16;5153714;27;20054;-64
2022/03/19 05:25:52;;;;;;;44.90;16.25;;;;;;;4.20;100.00;101336.03;5153526;27;20050;-64
2022/03/19 05:28:18;;;;;;;39.13;15.10;;;;;;;4.53;100.00;101365.66;5153844;27;20042;-64
2022/03/19 05:30:46;;;;;;;39.28;15.55;;;;;;;4.83;100.00;101386.59;5153246;27;20065;-64
2022/03/19 05:33:14;;;;;;;33.20;14.93;;;;;;;5.08;100.00;101410.25;5153459;27;20549;-64
2022/03/19 05:35:40;;;;;;;33.40;15.00;;;;;;;5.33;100.00;101428.41;5153276;27;20051;-64
2022/03/19 05:38:07;;;;;;;41.03;15.45;;;;;;;5.56;100.00;101432.47;5153579;27;20046;-65
2022/03/19 05:40:33;;;;;;;44.30;16.17;;;;;;;5.84;100.00;101455.53;5153262;27;20053;-64
2022/03/19 05:42:59;;;;;;;40.38;16.30;;;;;;;6.11;100.00;101460.63;5153237;27;20046;-64
2022/03/19 05:45:25;;;;;;;49.10;16.67;;;;;;;6.55;100.00;101468.84;5153118;27;20061;-64
2022/03/19 05:47:52;;;;;;;41.70;16.83;;;;;;;6.71;100.00;101487.84;5153024;27;20050;-64
2022/03/19 05:50:19;;;;;;;36.38;16.05;;;;;;;6.90;100.00;101499.72;5152972;27;20104;-64
2022/03/19 05:52:46;;;;;;;41.95;15.98;;;;;;;6.94;100.00;101506.25;5152990;27;20042;-64
2022/03/19 05:55:13;;;;;;;35.10;16.15;;;;;;;7.26;99.24;101507.63;5153077;27;20513;-64
2022/03/19 05:57:40;;;;;;;34.83;15.32;;;;;;;7.65;96.78;101510.28;5152815;27;20069;-64
2022/03/19 06:00:08;;;;;;;33.60;16.55;;;;;;;7.69;95.00;101524.97;5153142;27;20421;-65
2022/03/19 06:02:38;;;;;;;32.75;17.50;;;;;;;8.04;92.64;101527.66;5152680;27;20141;-65
2022/03/19 06:05:06;;;;;;;36.08;17.83;;;;;;;7.98;92.05;101535.91;5152974;27;20055;-64
2022/03/19 06:07:33;;;;;;;34.30;16.00;;;;;;;8.20;91.61;101538.13;5152566;27;20053;-64
2022/03/19 06:09:59;;;;;;;35.38;17.63;;;;;;;8.06;88.40;101550.84;5152791;27;20069;-64
2022/03/19 06:12:25;;;;;;;38.05;18.65;;;;;;;8.47;88.90;101550.41;5152771;27;20107;-64
2022/03/19 06:14:53;;;;;;;44.70;18.25;;;;;;;8.64;85.85;101558.94;5152636;27;20051;-64
2022/03/19 06:17:19;;;;;;;42.80;17.77;;;;;;;8.85;86.08;101550.47;5152642;27;20099;-64
2022/03/19 06:19:46;;;;;;;39.47;20.15;;;;;;;9.29;84.42;101558.28;5152725;27;20047;-64
2022/03/19 06:22:13;;;;;;;38.05;17.90;;;;;;;9.30;83.46;101570.06;5153010;27;20083;-64
2022/03/19 06:24:39;;;;;;;50.17;17.90;;;;;;;9.47;83.66;101564.03;5152606;27;20050;-64
2022/03/19 06:27:05;;;;;;;34.55;16.55;;;;;;;9.78;81.24;101565.13;5152689;27;20049;-64
2022/03/19 06:29:31;;;;;;;29.70;15.27;;;;;;;9.97;79.23;101572.50;5152611;27;20055;-65
2022/03/19 06:31:58;;;;;;;24.98;15.27;;;;;;;10.04;79.47;101575.66;5152577;27;20498;-65
2022/03/19 06:34:25;;;;;;;32.60;16.92;;;;;;;10.32;79.72;101580.06;5152272;27;20046;-64
2022/03/19 06:39:36;;;;;;;31.00;15.70;;;;;;;10.72;80.08;101587.78;5152575;27;20054;-65
2022/03/19 06:42:02;;;;;;;30.77;16.23;;;;;;;10.73;75.43;101598.44;5152273;27;20051;-64
2022/03/19 06:44:28;;;;;;;35.63;16.83;;;;;;;11.05;75.54;101599.41;5152226;27;20057;-64
2022/03/19 06:46:54;;;;;;;31.02;16.55;;;;;;;11.34;75.32;101598.22;5151890;27;20046;-64
2022/03/19 06:49:21;;;;;;;28.92;16.67;;;;;;;11.42;68.59;101612.00;5152044;27;20051;-64
2022/03/19 06:51:47;;;;;;;24.15;16.42;;;;;;;11.48;66.77;101616.25;5152099;27;20073;-64
2022/03/19 06:54:13;;;;;;;27.45;16.15;;;;;;;11.62;65.06;101629.13;5152172;27;20047;-64
2022/03/19 06:56:40;;;;;;;27.20;15.77;;;;;;;12.01;64.70;101629.25;5151844;27;20046;-64
2022/03/19 06:59:07;;;;;;;26.95;16.27;;;;;;;12.45;63.86;101633.03;5151934;27;20459;-64
2022/03/19 07:01:36;;;;;;;26.48;15.88;;;;;;;12.68;62.49;101631.03;5151874;27;20099;-64
2022/03/19 07:04:02;;;;;;;37.25;16.58;;;;;;;12.86;61.27;101637.41;5151964;27;20050;-64
2022/03/19 07:06:29;;;;;;;22.50;14.90;;;;;;;13.27;61.67;101646.41;5151867;27;20050;-64
2022/03/19 07:08:55;;;;;;;28.77;15.57;;;;;;;13.41;60.35;101638.81;5151786;27;20058;-64
2022/03/19 07:11:21;;;;;;;23.23;14.45;;;;;;;13.19;59.31;101648.81;5151921;27;20046;-64
2022/03/19 07:13:48;;;;;;;30.83;16.38;;;;;;;13.43;61.39;101644.81;5151791;27;20043;-64
2022/03/19 07:16:15;;;;;;;27.27;15.75;;;;;;;13.56;58.95;101645.75;5152186;27;20572;-64
2022/03/19 07:18:42;;;;;;;25.92;16.65;;;;;;;13.60;59.50;101644.00;5151017;27;20051;-64
2022/03/19 07:21:09;;;;;;;29.65;15.45;;;;;;;13.89;59.18;101641.38;5152003;27;20578;-64
2022/03/19 07:23:35;;;;;;;25.08;14.82;;;;;;;14.12;59.30;101639.19;5151838;27;20181;-64
2022/03/19 07:26:01;;;;;;;20.02;14.15;;;;;;;13.98;57.77;101644.09;5152050;27;20524;-64
2022/03/19 07:28:29;;;;;;;22.67;13.20;;;;;;;13.88;55.75;101649.97;5151610;27;20099;-64
2022/03/19 07:30:56;;;;;;;22.63;14.07;;;;;;;13.89;56.30;101652.41;5151717;27;20453;-65
2022/03/19 07:33:23;;;;;;;20.52;12.75;;;;;;;13.89;55.57;101651.56;5151980;27;20057;-64
2022/03/19 07:35:49;;;;;;;25.60;13.45;;;;;;;14.06;55.32;101656.25;5151652;27;20536;-64
2022/03/19 07:38:15;;;;;;;16.08;12.70;;;;;;;13.83;54.11;101661.19;5151892;27;20418;-65
2022/03/19 07:43:26;;;;;;;;;;;;;;;14.06;53.24;101650.72;5152227;27;20100;-64
2022/03/19 07:45:53;;;;;;;19.77;11.40;;;;;;;14.24;53.46;101649.56;5151418;27;20015;-64
2022/03/19 07:48:20;;;;;;;16.10;10.93;;;;;;;14.29;52.70;101654.06;5151666;27;20047;-64
2022/03/19 07:50:47;;;;;;;17.35;11.50;;;;;;;14.11;53.52;101648.63;5150966;27;20107;-64
2022/03/19 07:53:13;;;;;;;22.77;11.55;;;;;;;14.62;53.75;101651.56;5151344;27;20047;-64
2022/03/19 07:55:39;;;;;;;13.93;9.25;;;;;;;14.68;50.98;101653.00;5151437;27;20099;-63
2022/03/19 07:58:06;;;;;;;15.85;10.57;;;;;;;14.87;52.31;101655.34;5151173;27;20050;-64
2022/03/19 08:00:32;;;;;;;16.98;10.60;;;;;;;15.00;51.97;101657.06;5151015;27;20050;-64
2022/03/19 08:02:59;;;;;;;17.05;9.85;;;;;;;14.99;51.94;101655.41;5151114;27;20050;-64
2022/03/19 08:05:26;;;;;;;9.32;7.45;;;;;;;14.73;51.19;101658.34;5151306;27;20429;-64
2022/03/19 08:07:52;;;;;;;10.90;7.80;;;;;;;14.85;50.89;101659.56;5151000;27;20433;-64
2022/03/19 08:10:19;;;;;;;12.38;7.20;;;;;;;14.48;49.46;101667.50;5150497;27;20054;-63
2022/03/19 08:12:46;;;;;;;11.70;7.35;;;;;;;14.35;49.64;101656.34;5150762;27;20050;-64
2022/03/19 08:15:13;;;;;;;13.35;7.72;;;;;;;13.82;49.55;101662.28;5151075;27;20064;-65
2022/03/19 08:17:41;;;;;;;12.80;8.15;;;;;;;13.80;50.41;101659.06;5150828;27;20051;-64
2022/03/19 08:20:08;;;;;;;14.50;8.23;;;;;;;13.78;50.17;101656.63;5151176;27;20051;-64
2022/03/19 08:22:35;;;;;;;12.77;7.88;;;;;;;14.08;50.47;101657.53;5150877;27;20051;-64
2022/03/19 08:25:03;;;;;;;13.20;7.60;;;;;;;14.38;49.46;101657.63;5150954;27;20103;-64
2022/03/19 08:27:29;;;;;;;10.40;7.55;;;;;;;14.57;50.35;101662.78;5150697;27;20051;-64
2022/03/19 08:29:55;;;;;;;9.27;7.22;;;;;;;14.67;49.86;101669.91;5151290;27;20058;-64
2022/03/19 08:32:22;;;;;;;10.52;7.55;;;;;;;14.44;50.12;101681.16;5154728;27;20074;-66
2022/03/19 08:34:49;;;;;;;12.85;7.55;;;;;;;14.31;48.79;101673.88;5154630;27;20137;-64
2022/03/19 08:37:15;;;;;;;11.40;8.02;;;;;;;14.31;49.46;101673.88;5154508;27;20051;-63
2022/03/19 08:42:27;;;;;;;10.30;7.63;;;;;;;14.59;49.64;101669.63;5154569;27;20050;-64
2022/03/19 08:44:56;;;;;;;11.73;7.93;;;;;;;14.65;49.54;101669.41;5154215;27;20424;-65
2022/03/19 08:47:22;;;;;;;14.20;7.68;;;;;;;14.84;49.06;101672.56;5154170;27;20051;-64
2022/03/19 08:49:48;;;;;;;11.02;8.00;;;;;;;14.61;48.76;101672.03;5153623;27;20055;-63
2022/03/19 08:52:15;;;;;;;12.93;7.97;;;;;;;14.41;50.15;101672.72;5153997;27;20463;-64
2022/03/19 08:54:41;;;;;;;11.35;7.35;;;;;;;14.24;49.31;101673.59;5154341;27;20054;-64
2022/03/19 08:57:08;;;;;;;15.68;7.90;;;;;;;13.56;49.97;101679.66;5153953;27;20058;-64
2022/03/19 08:59:34;;;;;;;11.95;7.40;;;;;;;13.65;51.13;101671.38;5153840;27;20050;-64
2022/03/19 09:02:00;;;;;;;11.70;6.63;;;;;;;13.78;49.15;101675.91;5153856;27;20053;-64
2022/03/19 09:04:27;;;;;;;6.93;6.07;;;;;;;14.09;48.96;101667.47;5154057;27;20508;-64
2022/03/19 09:06:53;;;;;;;11.75;6.95;;;;;;;13.67;48.36;101676.59;5153724;27;20091;-65
2022/03/19 09:09:19;;;;;;;9.95;7.05;;;;;;;13.52;48.86;101675.09;5154157;27;20047;-65
2022/03/19 09:11:48;;;;;;;11.20;6.82;;;;;;;13.41;49.17;101680.13;5153769;27;20046;-65
2022/03/19 09:14:16;;;;;;;10.57;6.60;;;;;;;13.24;49.47;101677.31;5153857;27;20050;-64
2022/03/19 09:16:42;;;;;;;11.75;6.88;;;;;;;13.54;48.78;101686.63;5153628;27;20053;-64
2022/03/19 09:19:08;;;;;;;8.48;6.43;;;;;;;13.59;49.16;101680.94;5153552;27;20509;-64
2022/03/19 09:21:35;;;;;;;10.13;6.55;;;;;;;13.46;49.57;101679.16;5153650;27;20047;-64
2022/03/19 09:24:01;;;;;;;9.35;6.30;;;;;;;13.40;50.09;101686.78;5153253;27;20058;-65
2022/03/19 09:26:27;;;;;;;11.60;7.30;;;;;;;12.86;49.75;101689.72;5153859;27;20084;-64
2022/03/19 09:28:53;;;;;;;9.68;6.65;;;;;;;12.40;50.11;101693.72;5153761;27;20057;-65
2022/03/19 09:31:20;;;;;;;9.48;6.30;;;;;;;12.09;50.58;101685.41;5153932;27;20445;-64
2022/03/19 09:33:48;;;;;;;13.40;6.50;;;;;;;11.71;49.72;101691.25;5153522;27;20053;-64
2022/03/19 09:36:15;;;;;;;10.50;6.10;;;;;;;11.60;50.79;101695.38;5154020;27;20142;-64
2022/03/19 09:38:41;;;;;;;14.07;6.30;;;;;;;11.96;51.29;101691.78;5153431;27;20050;-64
2022/03/19 09:41:08;;;;;;;9.40;6.57;;;;;;;12.25;49.68;101686.66;5153232;27;20051;-63
2022/03/19 09:43:35;;;;;;;10.45;6.55;;;;;;;12.50;49.96;101689.06;5153245;27;20043;-64
2022/03/19 09:46:02;;;;;;;12.68;7.70;;;;;;;12.09;50.09;101690.13;5153238;27;20065;-64
2022/03/19 09:48:29;;;;;;;10.70;6.60;;;;;;;11.81;51.68;101694.91;5153659;27;20165;-64
2022/03/19 09:50:57;;;;;;;11.35;7.28;;;;;;;11.40;51.00;101695.84;5152869;27;20557;-65
2022/03/19 09:53:26;;;;;;;9.85;6.72;;;;;;;11.06;51.37;101692.44;5153351;27;20054;-64
2022/03/19 09:55:53;;;;;;;9.00;6.88;;;;;;;11.11;51.58;101685.22;5153062;27;20059;-63
2022/03/19 09:58:19;;;;;;;10.85;6.75;;;;;;;11.12;52.46;101679.41;5153266;27;20051;-64
2022/03/19 10:00:46;;;;;;;11.07;6.65;;;;;;;11.66;52.81;101676.81;5152907;27;20047;-64
2022/03/19 10:03:13;;;;;;;19.38;6.78;;;;;;;11.70;52.31;101686.09;5152877;27;20528;-63
2022/03/19 10:08:39;;;;;;;11.23;6.93;;;;;;;10.87;53.61;101678.00;5152826;27;20057;-65
2022/03/19 10:11:06;;;;;;;10.85;6.70;;;;;;;10.71;53.05;101684.91;5152765;27;20050;-65
2022/03/19 10:13:33;;;;;;;10.00;6.25;;;;;;;10.54;52.57;101691.81;5152613;27;20398;-64
2022/03/19 10:15:59;;;;;;;10.95;5.47;;;;;;;10.60;52.28;101690.59;5152776;27;20058;-65
2022/03/19 10:18:27;;;;;;;13.02;5.85;;;;;;;10.78;53.68;101688.88;5152828;27;20084;-64
2022/03/19 10:20:54;;;;;;;11.50;7.05;;;;;;;11.05;53.30;101684.50;5152865;27;20471;-64
2022/03/19 10:23:33;;;;;;;14.98;6.15;;;;;;;10.79;52.69;101682.25;5152682;27;20465;-64
2022/03/19 10:25:59;;;;;;;9.75;5.97;;;;;;;10.83;51.50;101671.50;5152396;27;20507;-64
2022/03/19 10:28:29;;;;;;;12.85;6.07;;;;;;;10.77;52.57;101675.47;5152316;27;20049;-65
2022/03/19 10:30:56;;;;;;;16.00;6.43;;;;;;;10.95;53.65;101665.50;5152271;27;20046;-64
2022/03/19 10:33:25;;;;;;;11.52;5.88;;;;;;;10.98;52.52;101673.94;5152279;27;20047;-64
2022/03/19 10:35:51;;;;;;;9.85;6.03;;;;;;;11.06;53.16;101680.63;5152349;27;20060;-66
2022/03/19 10:38:22;;;;;;;10.27;6.07;;;;;;;10.89;52.55;101672.19;5152303;27;20050;-65
2022/03/19 10:40:51;;;;;;;12.93;6.30;;;;;;;10.73;53.96;101671.69;5152405;27;20055;-64
2022/03/19 10:43:19;;;;;;;8.73;6.03;;;;;;;10.82;52.66;101670.69;5152111;27;20050;-63
2022/03/19 10:45:47;;;;;;;8.98;6.15;;;;;;;11.06;52.60;101667.75;5152271;27;20581;-64
2022/03/19 10:48:18;;;;;;;7.30;5.10;;;;;;;10.98;52.65;101667.63;5152063;27;20047;-64
2022/03/19 10:50:44;;;;;;;8.25;5.57;;;;;;;11.29;51.81;101663.09;5151967;27;20047;-64
2022/03/19 10:53:13;;;;;;;10.13;5.40;;;;;;;11.58;52.17;101664.66;5150997;27;20053;-64
2022/03/19 10:55:40;;;;;;;12.00;6.18;;;;;;;11.80;51.37;101663.88;5152493;27;20046;-64
2022/03/19 10:58:08;;;;;;;8.05;5.43;;;;;;;11.85;49.95;101668.44;5152010;27;20050;-64
2022/03/19 11:00:35;;;;;;;10.70;5.90;;;;;;;11.34;49.74;101667.69;5152546;27;20047;-64
2022/03/19 11:03:12;;;;;;;13.40;6.40;;;;;;;10.98;50.95;101673.13;5152338;27;20061;-65
2022/03/19 11:05:40;;;;;;;10.45;6.35;;;;;;;11.13;51.93;101655.50;5152189;27;20050;-64
2022/03/19 11:08:08;;;;;;;9.07;5.63;;;;;;;11.18;53.59;101655.41;5151590;27;20050;-64
2022/03/19 11:10:35;;;;;;;11.18;6.13;;;;;;;11.24;52.02;101654.19;5139324;27;20047;-64
2022/03/19 11:13:03;;;;;;;11.98;6.88;;;;;;;11.45;52.35;101654.53;5130758;28;20062;-65
2022/03/19 11:15:33;;;;;;;11.00;6.22;;;;;;;11.61;52.37;101658.53;5130887;28;20051;-64
2022/03/19 11:18:03;;;;;;;9.43;5.80;;;;;;;11.37;51.18;101660.75;5131091;27;20140;-64
2022/03/19 11:20:30;;;;;;;13.43;6.22;;;;;;;10.92;51.74;101658.69;5130984;28;20082;-65
2022/03/19 11:22:59;;;;;;;10.73;6.43;;;;;;;10.26;52.11;101654.47;5130859;28;20138;-65